首页
METAR-TAF:

METAR-TAF

机场 :

Bacon County Airport

Alma, 喬治亞, 美国

纬度: 31-32-10N, 经度: 082-30-24W, 海拔: 61米

当前天气观测

该预报发布于38分钟前的14:53 UTC
风速9节,风向北转西北
温度 8°C
湿度 61%
气压 1021 hPa
能見度: 16.1公里
天空无云

METAR: KAMG 261453Z AUTO 34009KT 10SM CLR 08/01 A3015 RMK AO2 SLP208 T00830006 51017

时间: 10:31 (15:31 UTC)


TAF: 丢失

超过4000个机场的气象观测和天气预报(METAR&TAF报告)。

可查询的气象台以黄色和红色小点在地图上表示。

将鼠标移到小点上方,可查看气象台名称。

然后点击查看天气观测和预报。

如需切换地图:点击带黑十字的绿色按钮放大地图;点击带横线的绿色按钮缩小地图;或者点击绿色箭头查看邻近地区的地图。


METAR-TAF: